createdAt,value
2023-03-05T00:00:07.939Z,4.37
2023-03-05T00:02:59.898Z,4.46
2023-03-05T00:05:46.714Z,4.53
2023-03-05T00:08:33.761Z,4.37
2023-03-05T00:11:21.492Z,4.46
2023-03-05T00:14:08.380Z,4.67
2023-03-05T00:16:56.610Z,4.68
2023-03-05T00:19:43.354Z,4.80
2023-03-05T00:22:30.152Z,4.91
2023-03-05T00:25:17.106Z,5.03
2023-03-05T00:28:03.898Z,4.96
2023-03-05T00:30:51.240Z,5.00
2023-03-05T00:33:40.658Z,4.84
2023-03-05T00:36:28.423Z,4.85
2023-03-05T00:39:15.418Z,4.80
2023-03-05T00:42:04.222Z,4.79
2023-03-05T00:44:51.249Z,4.94
2023-03-05T00:47:38.232Z,4.93
2023-03-05T00:50:26.757Z,5.01
2023-03-05T00:53:14.107Z,5.01
2023-03-05T00:56:01.251Z,5.19
2023-03-05T00:58:47.871Z,5.29
2023-03-05T01:01:34.362Z,5.14
2023-03-05T01:04:22.163Z,5.19
2023-03-05T01:07:10.405Z,5.25
2023-03-05T01:09:57.238Z,5.28
2023-03-05T01:12:44.028Z,5.30
2023-03-05T01:15:31.403Z,5.12
2023-03-05T01:18:18.671Z,5.27
2023-03-05T01:21:06.366Z,5.22
2023-03-05T01:23:54.827Z,5.30
2023-03-05T01:26:41.681Z,5.37
2023-03-05T01:29:28.411Z,5.32
2023-03-05T01:32:15.405Z,5.30
2023-03-05T01:35:02.973Z,5.21
2023-03-05T01:37:49.848Z,5.20
2023-03-05T01:40:37.952Z,5.14
2023-03-05T01:43:28.431Z,5.20
2023-03-05T01:46:28.676Z,5.03
2023-03-05T01:49:20.856Z,5.06
2023-03-05T01:52:11.821Z,5.01
2023-03-05T01:55:01.747Z,5.04
2023-03-05T01:57:53.621Z,5.15
2023-03-05T02:00:45.108Z,5.11
2023-03-05T02:03:32.861Z,4.75
2023-03-05T02:06:19.660Z,4.82
2023-03-05T02:09:06.712Z,4.70
2023-03-05T02:11:53.603Z,4.80
2023-03-05T02:14:46.291Z,4.69
2023-03-05T02:17:33.085Z,4.75
2023-03-05T02:20:22.086Z,4.57
2023-03-05T02:23:10.129Z,4.60
2023-03-05T02:25:57.518Z,4.63
2023-03-05T02:28:47.969Z,4.47
2023-03-05T02:31:34.658Z,4.45
2023-03-05T02:34:21.426Z,4.39
2023-03-05T02:37:10.718Z,4.40
2023-03-05T02:39:59.865Z,4.37
2023-03-05T02:42:47.157Z,4.43
2023-03-05T02:45:34.814Z,4.43
2023-03-05T02:48:21.475Z,4.41
2023-03-05T02:51:09.297Z,4.34
2023-03-05T02:53:55.851Z,4.32
2023-03-05T02:56:47.482Z,4.20
2023-03-05T02:59:34.130Z,4.35
2023-03-05T03:02:20.938Z,4.31
2023-03-05T03:05:08.858Z,4.45
2023-03-05T03:07:55.630Z,4.28
2023-03-05T03:10:42.463Z,4.31
2023-03-05T03:13:30.516Z,4.27
2023-03-05T03:16:17.969Z,4.24
2023-03-05T03:19:04.407Z,4.42
2023-03-05T03:21:51.326Z,4.04
2023-03-05T03:24:39.301Z,4.11
2023-03-05T03:27:25.974Z,4.13
2023-03-05T03:30:15.300Z,4.18
2023-03-05T03:33:01.980Z,4.05
2023-03-05T03:35:48.699Z,4.19
2023-03-05T03:38:35.424Z,4.23
2023-03-05T03:41:22.279Z,4.08
2023-03-05T03:44:10.764Z,4.10
2023-03-05T03:46:58.504Z,3.74
2023-03-05T03:49:45.295Z,4.07
2023-03-05T03:52:32.151Z,4.24
2023-03-05T03:55:18.876Z,4.17
2023-03-05T03:58:05.628Z,3.99
2023-03-05T04:00:52.470Z,4.20
2023-03-05T04:03:40.473Z,3.98
2023-03-05T04:06:27.119Z,4.13
2023-03-05T04:09:13.944Z,4.32
2023-03-05T04:12:00.674Z,4.01
2023-03-05T04:14:47.872Z,4.21
2023-03-05T04:17:34.444Z,4.18
2023-03-05T04:20:22.600Z,3.89
2023-03-05T04:23:08.982Z,4.09
2023-03-05T04:25:55.961Z,4.16
2023-03-05T04:28:42.660Z,4.13
2023-03-05T04:31:29.493Z,4.09
2023-03-05T04:34:16.081Z,4.13
2023-03-05T04:37:04.436Z,4.05
2023-03-05T04:39:51.556Z,4.13
2023-03-05T04:42:38.472Z,4.07
2023-03-05T04:45:25.094Z,4.06
2023-03-05T04:48:12.856Z,3.98
2023-03-05T04:50:59.547Z,4.07
2023-03-05T04:53:47.758Z,4.22
2023-03-05T04:56:36.390Z,4.27
2023-03-05T04:59:23.016Z,4.12
2023-03-05T05:02:09.871Z,3.93
2023-03-05T05:04:56.871Z,3.97
2023-03-05T05:07:43.524Z,4.14
2023-03-05T05:10:31.709Z,4.08
2023-03-05T05:13:19.876Z,4.06
2023-03-05T05:16:08.586Z,3.99
2023-03-05T05:18:55.266Z,4.16
2023-03-05T05:21:42.580Z,4.05
2023-03-05T05:24:29.933Z,4.16
2023-03-05T05:27:20.441Z,4.16
2023-03-05T05:30:08.381Z,4.05
2023-03-05T05:32:54.918Z,4.06
2023-03-05T05:35:41.740Z,4.07
2023-03-05T05:38:28.386Z,4.04
2023-03-05T05:41:18.626Z,3.96
2023-03-05T05:44:06.669Z,4.00
2023-03-05T05:46:53.230Z,4.06
2023-03-05T05:49:39.927Z,4.13
2023-03-05T05:52:26.739Z,4.01
2023-03-05T05:55:14.200Z,3.94
2023-03-05T05:58:00.523Z,4.15
2023-03-05T06:00:48.658Z,4.02
2023-03-05T06:03:35.448Z,4.07
2023-03-05T06:06:24.417Z,4.13
2023-03-05T06:09:10.874Z,4.07
2023-03-05T06:11:57.661Z,4.15
2023-03-05T06:14:44.386Z,4.00
2023-03-05T06:17:32.545Z,4.06
2023-03-05T06:20:19.571Z,4.08
2023-03-05T06:23:06.324Z,4.01
2023-03-05T06:25:53.792Z,4.21
2023-03-05T06:28:40.324Z,4.17
2023-03-05T06:31:29.575Z,4.10
2023-03-05T06:34:17.521Z,4.04
2023-03-05T06:37:04.367Z,3.95
2023-03-05T06:39:51.147Z,4.07
2023-03-05T06:42:37.979Z,3.95
2023-03-05T06:45:24.771Z,4.05
2023-03-05T06:48:11.777Z,4.05
2023-03-05T06:50:59.798Z,4.06
2023-03-05T06:53:49.369Z,4.04
2023-03-05T06:56:38.152Z,4.05
2023-03-05T06:59:25.161Z,3.95
2023-03-05T07:02:13.730Z,4.01
2023-03-05T07:05:00.316Z,4.20
2023-03-05T07:07:48.398Z,4.26
2023-03-05T07:10:39.138Z,4.15
2023-03-05T07:13:25.690Z,4.11
2023-03-05T07:16:16.420Z,4.20
2023-03-05T07:19:05.702Z,4.22
2023-03-05T07:21:52.604Z,4.22
2023-03-05T07:24:40.812Z,4.34
2023-03-05T07:27:27.567Z,4.45
2023-03-05T07:30:15.140Z,4.52
2023-03-05T07:33:02.192Z,4.66
2023-03-05T07:35:49.055Z,4.60
2023-03-05T07:38:35.994Z,4.72
2023-03-05T07:41:24.488Z,4.65
2023-03-05T07:44:11.346Z,4.72
2023-03-05T07:46:58.090Z,4.32
2023-03-05T07:49:44.776Z,4.52
2023-03-05T07:52:31.648Z,4.74
2023-03-05T07:55:18.602Z,4.68
2023-03-05T07:58:06.597Z,4.83
2023-03-05T08:00:53.370Z,4.77
2023-03-05T08:03:40.568Z,4.67
2023-03-05T08:06:27.401Z,4.71
2023-03-05T08:09:14.392Z,4.82
2023-03-05T08:12:01.151Z,5.04
2023-03-05T08:14:49.285Z,5.13
2023-03-05T08:17:36.112Z,5.14
2023-03-05T08:20:23.221Z,4.94
2023-03-05T08:23:09.753Z,4.90
2023-03-05T08:25:57.249Z,4.99
2023-03-05T08:28:43.749Z,4.94
2023-03-05T08:31:32.132Z,4.80
2023-03-05T08:34:18.876Z,5.08
2023-03-05T08:37:06.249Z,5.06
2023-03-05T08:39:52.985Z,5.20
2023-03-05T08:42:39.765Z,5.31
2023-03-05T08:45:27.647Z,5.15
2023-03-05T08:48:15.804Z,5.31
2023-03-05T08:51:06.780Z,5.59
2023-03-05T08:53:53.703Z,5.63
2023-03-05T08:56:40.591Z,5.39
2023-03-05T08:59:27.028Z,5.30
2023-03-05T09:02:14.427Z,5.19
2023-03-05T09:05:02.673Z,5.12
2023-03-05T09:07:49.286Z,5.06
2023-03-05T09:10:36.083Z,5.11
2023-03-05T09:13:23.193Z,5.11
2023-03-05T09:16:13.255Z,5.21
2023-03-05T09:19:00.231Z,5.32
2023-03-05T09:21:48.471Z,5.41
2023-03-05T09:24:35.178Z,5.44
2023-03-05T09:27:22.205Z,5.40
2023-03-05T09:30:10.052Z,5.33
2023-03-05T09:32:56.878Z,5.44
2023-03-05T09:35:43.696Z,5.43
2023-03-05T09:38:32.071Z,5.32
2023-03-05T09:41:27.819Z,5.23
2023-03-05T09:44:24.538Z,5.42
2023-03-05T09:47:28.323Z,5.62
2023-03-05T09:50:32.990Z,5.44
2023-03-05T09:53:27.257Z,5.39
2023-03-05T09:56:18.032Z,5.45
2023-03-05T09:59:16.380Z,5.56
2023-03-05T10:02:13.685Z,5.39
2023-03-05T10:05:05.481Z,5.62
2023-03-05T10:07:56.428Z,5.46
2023-03-05T10:10:49.883Z,5.55
2023-03-05T10:13:42.279Z,5.66
2023-03-05T10:17:01.095Z,5.68
2023-03-05T10:20:04.532Z,5.74
2023-03-05T10:23:11.346Z,5.94
2023-03-05T10:26:08.133Z,6.02
2023-03-05T10:29:12.897Z,6.28
2023-03-05T10:32:13.082Z,6.34
2023-03-05T10:35:29.652Z,6.08
2023-03-05T10:38:27.704Z,5.97
2023-03-05T10:41:21.114Z,6.04
2023-03-05T10:44:15.324Z,5.96
2023-03-05T10:47:03.045Z,6.17
2023-03-05T10:49:53.265Z,6.32
2023-03-05T10:52:46.721Z,6.09
2023-03-05T10:55:33.526Z,6.09
2023-03-05T10:58:20.219Z,6.07
2023-03-05T11:01:22.784Z,6.05
2023-03-05T11:04:26.984Z,5.76
2023-03-05T11:07:38.513Z,6.53
2023-03-05T11:10:26.264Z,6.46
2023-03-05T11:13:26.439Z,6.46
2023-03-05T11:16:21.088Z,6.44
2023-03-05T11:19:20.143Z,6.46
2023-03-05T11:22:16.619Z,6.51
2023-03-05T11:25:14.238Z,6.56
2023-03-05T11:28:03.255Z,6.33
2023-03-05T11:30:58.212Z,6.47
2023-03-05T11:33:57.966Z,6.32
2023-03-05T11:37:03.641Z,6.20
2023-03-05T11:39:50.570Z,6.63
2023-03-05T11:42:41.399Z,6.41
2023-03-05T11:45:29.695Z,6.34
2023-03-05T11:48:21.002Z,6.16
2023-03-05T11:51:16.897Z,6.02
2023-03-05T11:54:13.193Z,6.23
2023-03-05T11:57:02.594Z,6.17
2023-03-05T11:59:51.375Z,6.35
2023-03-05T12:02:39.174Z,6.18
2023-03-05T12:05:34.721Z,6.10
2023-03-05T12:08:28.599Z,6.32
2023-03-05T12:11:22.153Z,6.37
2023-03-05T12:14:20.255Z,6.68
2023-03-05T12:17:11.530Z,6.44
2023-03-05T12:20:06.493Z,6.35
2023-03-05T12:22:53.832Z,6.65
2023-03-05T12:25:49.256Z,6.39
2023-03-05T12:28:59.435Z,6.55
2023-03-05T12:31:46.393Z,6.28
2023-03-05T12:34:48.434Z,6.27
2023-03-05T12:38:06.179Z,6.17
2023-03-05T12:41:35.806Z,6.02
2023-03-05T12:44:23.793Z,6.07
2023-03-05T12:47:23.701Z,5.90
2023-03-05T12:50:52.898Z,5.70
2023-03-05T12:53:39.744Z,5.46
2023-03-05T12:56:31.093Z,5.44
2023-03-05T12:59:23.019Z,5.56
2023-03-05T13:02:23.009Z,5.75
2023-03-05T13:05:21.862Z,5.80
2023-03-05T13:08:22.077Z,5.66
2023-03-05T13:11:18.056Z,5.58
2023-03-05T13:14:05.107Z,5.72
2023-03-05T13:16:53.237Z,5.79
2023-03-05T13:19:42.970Z,5.82
2023-03-05T13:22:29.974Z,5.92
2023-03-05T13:25:20.646Z,5.95
2023-03-05T13:28:12.958Z,6.08
2023-03-05T13:31:02.364Z,6.24
2023-03-05T13:33:56.918Z,6.34
2023-03-05T13:36:48.464Z,6.03
2023-03-05T13:39:38.423Z,5.97
2023-03-05T13:42:28.494Z,5.96
2023-03-05T13:45:24.687Z,6.03
2023-03-05T13:48:20.388Z,5.95
2023-03-05T13:51:09.709Z,5.83
2023-03-05T13:53:56.381Z,5.82
2023-03-05T13:56:51.230Z,5.87
2023-03-05T13:59:40.071Z,5.97
2023-03-05T14:02:28.991Z,5.83
2023-03-05T14:05:16.562Z,5.96
2023-03-05T14:08:05.191Z,6.06
2023-03-05T14:10:52.522Z,6.03
2023-03-05T14:13:39.592Z,6.03
2023-03-05T14:16:28.147Z,6.13
2023-03-05T14:19:34.850Z,6.00
2023-03-05T14:22:33.199Z,6.04
2023-03-05T14:25:36.617Z,6.37
2023-03-05T14:28:28.320Z,6.51
2023-03-05T14:31:18.377Z,6.38
2023-03-05T14:34:07.352Z,6.54
2023-03-05T14:36:57.387Z,6.25
2023-03-05T14:39:50.802Z,6.25
2023-03-05T14:42:51.469Z,6.06
2023-03-05T14:45:39.814Z,5.91
2023-03-05T14:48:26.561Z,6.12
2023-03-05T14:51:13.570Z,6.14
2023-03-05T14:54:00.214Z,6.08
2023-03-05T14:56:48.031Z,6.15
2023-03-05T14:59:36.176Z,5.88
2023-03-05T15:02:24.811Z,5.69
2023-03-05T15:05:11.388Z,5.76
2023-03-05T15:07:58.361Z,5.90
2023-03-05T15:10:45.449Z,5.82
2023-03-05T15:13:32.384Z,5.77
2023-03-05T15:16:21.053Z,5.73
2023-03-05T15:19:07.526Z,5.76
2023-03-05T15:21:54.176Z,5.81
2023-03-05T15:24:40.990Z,5.72
2023-03-05T15:27:27.910Z,5.68
2023-03-05T15:30:22.540Z,5.57
2023-03-05T15:33:12.667Z,5.72
2023-03-05T15:35:59.598Z,5.76
2023-03-05T15:38:48.124Z,5.64
2023-03-05T15:41:34.861Z,5.67
2023-03-05T15:44:22.226Z,5.82
2023-03-05T15:47:09.125Z,5.57
2023-03-05T15:49:57.179Z,5.71
2023-03-05T15:52:43.858Z,5.70
2023-03-05T15:55:30.654Z,5.56
2023-03-05T15:58:18.317Z,5.56
2023-03-05T16:01:04.810Z,5.65
2023-03-05T16:03:51.970Z,5.67
2023-03-05T16:06:40.194Z,5.67
2023-03-05T16:09:30.900Z,5.64
2023-03-05T16:12:23.461Z,5.71
2023-03-05T16:15:12.234Z,5.53
2023-03-05T16:18:01.757Z,5.58
2023-03-05T16:20:48.753Z,5.50
2023-03-05T16:23:36.859Z,5.48
2023-03-05T16:26:23.768Z,5.30
2023-03-05T16:29:10.965Z,5.13
2023-03-05T16:32:03.749Z,4.93
2023-03-05T16:34:51.001Z,5.02
2023-03-05T16:37:41.161Z,4.98
2023-03-05T16:40:56.657Z,4.74
2023-03-05T16:43:51.533Z,4.97
2023-03-05T16:46:41.641Z,4.95
2023-03-05T16:49:28.811Z,5.03
2023-03-05T16:52:18.977Z,4.91
2023-03-05T16:55:07.718Z,4.87
2023-03-05T16:57:57.719Z,4.74
2023-03-05T17:00:46.300Z,4.77
2023-03-05T17:03:33.671Z,4.76
2023-03-05T17:06:22.652Z,4.74
2023-03-05T17:09:09.345Z,4.67
2023-03-05T17:11:56.299Z,4.66
2023-03-05T17:14:44.456Z,4.69
2023-03-05T17:17:31.923Z,4.62
2023-03-05T17:20:20.176Z,4.65
2023-03-05T17:23:06.753Z,4.84
2023-03-05T17:25:53.684Z,4.76
2023-03-05T17:28:41.110Z,4.78
2023-03-05T17:31:32.587Z,4.76
2023-03-05T17:34:33.308Z,4.75
2023-03-05T17:37:21.111Z,4.67
2023-03-05T17:40:09.494Z,4.62
2023-03-05T17:42:58.470Z,4.63
2023-03-05T17:45:48.928Z,4.64
2023-03-05T17:48:39.410Z,4.68
2023-03-05T17:51:26.903Z,4.63
2023-03-05T17:54:13.876Z,4.59
2023-03-05T17:57:01.178Z,4.57
2023-03-05T17:59:48.637Z,4.53
2023-03-05T18:02:43.576Z,4.44
2023-03-05T18:05:36.783Z,4.36
2023-03-05T18:08:25.558Z,4.35
2023-03-05T18:11:15.995Z,4.28
2023-03-05T18:14:05.757Z,4.26
2023-03-05T18:16:55.404Z,4.30
2023-03-05T18:19:42.298Z,4.19
2023-03-05T18:22:30.268Z,4.17
2023-03-05T18:25:17.087Z,4.18
2023-03-05T18:28:05.887Z,4.15
2023-03-05T18:30:53.075Z,4.05
2023-03-05T18:33:39.836Z,4.05
2023-03-05T18:36:26.466Z,3.94
2023-03-05T18:39:16.355Z,3.97
2023-03-05T18:42:03.264Z,3.93
2023-03-05T18:44:49.980Z,3.98
2023-03-05T18:47:39.108Z,3.81
2023-03-05T18:50:28.777Z,3.90
2023-03-05T18:53:15.848Z,3.90
2023-03-05T18:56:03.870Z,3.77
2023-03-05T18:58:51.068Z,3.86
2023-03-05T19:01:39.187Z,3.70
2023-03-05T19:04:25.734Z,3.90
2023-03-05T19:07:12.539Z,4.00
2023-03-05T19:10:03.829Z,3.84
2023-03-05T19:12:57.729Z,4.06
2023-03-05T19:15:44.465Z,3.94
2023-03-05T19:18:33.946Z,3.87
2023-03-05T19:21:20.502Z,3.86
2023-03-05T19:24:08.060Z,3.84
2023-03-05T19:26:56.118Z,3.82
2023-03-05T19:29:45.066Z,3.78
2023-03-05T19:32:31.655Z,3.70
2023-03-05T19:35:19.254Z,3.73
2023-03-05T19:38:06.183Z,3.65
2023-03-05T19:40:53.287Z,3.51
2023-03-05T19:43:40.611Z,3.43
2023-03-05T19:46:29.182Z,3.46
2023-03-05T19:49:17.571Z,3.48
2023-03-05T19:52:06.412Z,3.51
2023-03-05T19:54:53.529Z,3.54
2023-03-05T19:57:40.844Z,3.55
2023-03-05T20:00:29.584Z,3.54
2023-03-05T20:03:18.323Z,3.40
2023-03-05T20:06:06.301Z,3.41
2023-03-05T20:08:54.336Z,3.41
2023-03-05T20:11:41.620Z,3.42
2023-03-05T20:14:28.826Z,3.42
2023-03-05T20:17:16.426Z,3.44
2023-03-05T20:20:05.131Z,3.47
2023-03-05T20:22:52.323Z,3.42
2023-03-05T20:25:40.022Z,3.52
2023-03-05T20:28:27.069Z,3.45
2023-03-05T20:31:14.379Z,3.50
2023-03-05T20:34:01.767Z,3.35
2023-03-05T20:36:50.270Z,3.50
2023-03-05T20:39:37.012Z,3.50
2023-03-05T20:42:23.969Z,3.47
2023-03-05T20:45:14.339Z,3.54
2023-03-05T20:48:04.818Z,3.50
2023-03-05T20:50:53.259Z,3.40
2023-03-05T20:53:45.565Z,3.63
2023-03-05T20:56:39.649Z,3.64
2023-03-05T20:59:29.626Z,3.71
2023-03-05T21:02:19.668Z,3.76
2023-03-05T21:05:10.657Z,3.80
2023-03-05T21:08:05.615Z,3.69
2023-03-05T21:10:53.585Z,3.58
2023-03-05T21:13:40.418Z,3.63
2023-03-05T21:16:28.427Z,3.65
2023-03-05T21:19:14.804Z,3.86
2023-03-05T21:22:01.695Z,3.86
2023-03-05T21:25:00.939Z,3.72
2023-03-05T21:27:49.821Z,3.69
2023-03-05T21:30:38.795Z,3.62
2023-03-05T21:33:30.272Z,3.61
2023-03-05T21:36:20.343Z,3.62
2023-03-05T21:39:07.047Z,3.58
2023-03-05T21:41:53.759Z,3.58
2023-03-05T21:44:42.007Z,3.70
2023-03-05T21:47:28.634Z,3.67
2023-03-05T21:50:16.964Z,3.75
2023-03-05T21:53:03.938Z,3.72
2023-03-05T21:56:04.190Z,3.63
2023-03-05T21:58:51.202Z,3.65
2023-03-05T22:01:39.368Z,3.62
2023-03-05T22:04:29.813Z,3.62
2023-03-05T22:07:21.985Z,3.70
2023-03-05T22:10:11.807Z,3.58
2023-03-05T22:13:07.006Z,3.59
2023-03-05T22:15:55.534Z,3.56
2023-03-05T22:18:43.498Z,3.51
2023-03-05T22:21:30.900Z,3.49
2023-03-05T22:24:17.416Z,3.50
2023-03-05T22:27:04.574Z,3.58
2023-03-05T22:29:51.385Z,3.57
2023-03-05T22:32:38.620Z,3.56
2023-03-05T22:35:27.153Z,3.65
2023-03-05T22:38:14.016Z,3.61
2023-03-05T22:41:00.644Z,3.61
2023-03-05T22:43:48.268Z,3.70
2023-03-05T22:46:34.755Z,3.65
2023-03-05T22:49:21.436Z,3.61
2023-03-05T22:52:09.685Z,3.50
2023-03-05T22:54:56.396Z,3.43
2023-03-05T22:57:43.648Z,3.48
2023-03-05T23:00:32.035Z,3.45
2023-03-05T23:03:18.801Z,3.48
2023-03-05T23:06:07.232Z,3.41
2023-03-05T23:08:55.163Z,3.44
2023-03-05T23:11:41.908Z,3.39
2023-03-05T23:14:29.126Z,3.47
2023-03-05T23:17:16.146Z,3.33
2023-03-05T23:20:05.128Z,3.33
2023-03-05T23:22:53.722Z,3.35
2023-03-05T23:25:41.892Z,3.43
2023-03-05T23:28:28.589Z,3.25
2023-03-05T23:31:18.753Z,3.23
2023-03-05T23:34:05.225Z,3.33
2023-03-05T23:36:51.961Z,3.34
2023-03-05T23:39:38.654Z,3.33
2023-03-05T23:42:29.590Z,3.25
2023-03-05T23:45:18.085Z,3.37
2023-03-05T23:48:05.395Z,3.39
2023-03-05T23:50:52.706Z,3.14
2023-03-05T23:53:39.271Z,3.16
2023-03-05T23:56:26.181Z,3.09
2023-03-05T23:59:14.293Z,3.16
